Time;durP1;ratioP1;P1;durP2;ratioP2;P2;SDS_P1;SDS_P2;PMS_P1;PMS_P2;Temp;Humidity;BMP_temperature;BMP_pressure;BME280_temperature;BME280_humidity;BME280_pressure;Samples;Min_cycle;Max_cycle;Signal;HPM_P1;HPM_P2
2021/04/16 00:00:56;;;;;;;6.47;5.87;;;2.70;99.90;;;0.55;100.00;101165.84;4961297;28;60574;-60
2021/04/16 00:04:07;;;;;;;6.43;5.83;;;2.70;99.90;;;0.43;100.00;101163.78;4960378;28;69929;-60
2021/04/16 00:07:59;;;;;;;5.80;5.30;;;2.70;99.90;;;0.46;100.00;101161.00;4958920;28;63640;-62
2021/04/16 00:11:19;;;;;;;7.00;5.70;;;2.70;99.90;;;0.47;100.00;101152.19;4889306;28;69660;-62
2021/04/16 00:14:31;;;;;;;6.53;5.93;;;2.70;99.90;;;0.46;100.00;101155.75;4950548;28;65816;-61
2021/04/16 00:17:43;;;;;;;7.67;6.40;;;2.70;99.90;;;0.43;100.00;101157.66;4953311;28;63603;-61
2021/04/16 00:20:55;;;;;;;8.60;6.30;;;2.70;99.90;;;0.45;100.00;101156.66;4949176;28;60970;-61
2021/04/16 00:24:06;;;;;;;7.53;6.37;;;2.70;99.90;;;0.44;100.00;101156.75;4932660;28;66049;-61
2021/04/16 00:27:17;;;;;;;8.10;6.00;;;2.70;99.90;;;0.47;100.00;101148.69;4955996;28;62854;-61
2021/04/16 00:30:30;;;;;;;7.50;6.37;;;2.70;99.90;;;0.42;100.00;101150.69;4955192;28;69150;-59
2021/04/16 00:33:43;;;;;;;6.10;5.57;;;2.70;99.90;;;0.40;100.00;101144.63;4950387;28;69586;-61
2021/04/16 00:36:55;;;;;;;7.73;6.67;;;2.70;99.90;;;0.47;100.00;101146.06;4949982;28;66052;-61
2021/04/16 00:40:06;;;;;;;8.20;7.03;;;2.70;99.90;;;0.46;100.00;101144.34;4955697;28;63335;-60
2021/04/16 00:43:20;;;;;;;7.13;6.37;;;2.70;99.90;;;0.49;100.00;101149.50;4951822;28;64240;-58
2021/04/16 00:46:40;;;;;;;7.30;6.60;;;2.70;99.90;;;0.50;100.00;101145.91;4953760;28;64733;-60
2021/04/16 00:49:57;;;;;;;6.50;5.90;;;2.70;99.90;;;0.46;100.00;101139.94;4952715;28;68127;-61
2021/04/16 00:53:09;;;;;;;7.40;6.50;;;2.70;99.90;;;0.40;100.00;101139.38;4943553;28;70362;-60
2021/04/16 00:56:21;;;;;;;6.17;5.57;;;2.70;99.90;;;0.40;100.00;101131.47;4934950;28;62660;-60
2021/04/16 00:59:33;;;;;;;6.60;5.40;;;2.70;99.90;;;0.38;100.00;101131.53;4957818;28;58492;-60
2021/04/16 01:02:59;;;;;;;7.00;6.10;;;2.70;99.90;;;0.38;100.00;101134.16;4937297;28;65668;-61
2021/04/16 01:06:22;;;;;;;6.47;5.83;;;2.70;99.90;;;0.37;100.00;101127.22;4952765;28;55738;-60
2021/04/16 01:09:34;;;;;;;6.10;5.40;;;2.60;99.90;;;0.52;100.00;101139.63;4952544;28;68199;-60
2021/04/16 01:12:58;;;;;;;7.07;6.37;;;2.60;99.90;;;0.36;100.00;101130.78;4951985;28;62869;-60
2021/04/16 01:16:12;;;;;;;7.40;6.07;;;2.60;99.90;;;0.43;100.00;101133.97;4953737;28;62903;-60
2021/04/16 01:19:27;;;;;;;7.37;6.63;;;2.60;99.90;;;0.38;100.00;101130.69;4955668;28;61576;-60
2021/04/16 01:22:46;;;;;;;7.27;6.50;;;2.60;99.90;;;0.28;100.00;101119.75;4948764;28;61643;-58
2021/04/16 01:26:07;;;;;;;6.57;5.97;;;2.60;99.90;;;0.35;100.00;101126.44;4956504;28;61466;-59
2021/04/16 01:29:19;;;;;;;7.43;6.10;;;2.50;99.90;;;0.31;100.00;101123.09;4958312;28;64487;-58
2021/04/16 01:32:35;;;;;;;6.30;5.70;;;2.50;99.90;;;0.39;100.00;101124.50;4955283;28;67094;-60
2021/04/16 01:35:50;;;;;;;7.60;6.63;;;2.50;99.90;;;0.27;100.00;101116.25;4958282;28;55792;-59
2021/04/16 01:39:02;;;;;;;7.87;6.57;;;2.50;99.90;;;0.26;100.00;101117.19;4960093;28;58967;-60
2021/04/16 01:42:14;;;;;;;7.37;6.67;;;2.50;99.90;;;0.29;100.00;101118.81;4957213;28;55151;-59
2021/04/16 01:45:26;;;;;;;7.53;6.30;;;2.50;99.90;;;0.35;100.00;101113.28;4955759;28;68495;-59
2021/04/16 01:48:43;;;;;;;8.63;7.00;;;2.50;99.90;;;0.33;100.00;101112.50;4955764;28;67369;-59
2021/04/16 01:51:56;;;;;;;8.07;6.67;;;2.50;99.90;;;0.27;100.00;101108.34;4956141;28;64183;-60
2021/04/16 01:55:09;;;;;;;8.10;7.30;;;2.50;99.90;;;0.32;100.00;101109.00;4958290;28;55989;-59
2021/04/16 01:58:21;;;;;;;8.47;7.00;;;2.50;99.90;;;0.34;100.00;101111.56;4952573;28;65484;-59
2021/04/16 02:01:33;;;;;;;8.20;6.30;;;2.50;99.90;;;0.34;100.00;101111.56;4953984;28;62060;-58
2021/04/16 02:04:45;;;;;;;8.57;7.67;;;2.50;99.90;;;0.43;100.00;101111.13;4969459;28;65549;-58
2021/04/16 02:07:57;;;;;;;8.80;7.40;;;2.50;99.90;;;0.44;100.00;101114.59;4955715;28;69362;-58
2021/04/16 02:11:09;;;;;;;9.43;6.83;;;2.50;99.90;;;0.40;100.00;101105.16;4953289;28;62720;-56
2021/04/16 02:14:21;;;;;;;7.53;6.57;;;2.50;99.90;;;0.43;100.00;101100.59;4967570;28;64332;-58
2021/04/16 02:17:37;;;;;;;7.97;6.83;;;2.50;99.90;;;0.38;100.00;101099.94;4952813;28;63105;-58
2021/04/16 02:20:50;;;;;;;8.73;6.83;;;2.50;99.90;;;0.47;100.00;101104.78;4956248;28;62458;-59
2021/04/16 02:24:01;;;;;;;7.80;6.97;;;2.50;99.90;;;0.42;100.00;101098.88;4956301;28;60839;-57
2021/04/16 02:27:12;;;;;;;8.00;7.20;;;2.50;99.90;;;0.48;100.00;101097.75;4960852;28;71916;-59
2021/04/16 02:30:27;;;;;;;7.80;7.00;;;2.60;99.90;;;0.47;100.00;101099.53;4960701;28;59278;-58
2021/04/16 02:33:38;;;;;;;9.37;7.87;;;2.50;99.90;;;0.50;100.00;101102.00;4973838;28;58209;-58
2021/04/16 02:36:50;;;;;;;8.60;7.50;;;2.60;99.90;;;0.46;100.00;101103.09;4957247;28;60748;-58
2021/04/16 02:40:01;;;;;;;9.00;7.67;;;2.50;99.90;;;0.53;100.00;101109.75;4948057;28;57005;-59
2021/04/16 02:43:13;;;;;;;8.47;7.63;;;2.60;99.90;;;0.47;100.00;101101.31;4962266;28;60771;-58
2021/04/16 02:46:25;;;;;;;9.90;6.90;;;2.60;99.90;;;0.54;100.00;101107.97;4956277;28;63571;-57
2021/04/16 02:49:37;;;;;;;8.63;7.37;;;2.60;99.90;;;0.59;100.00;101105.97;4957405;28;58883;-59
2021/04/16 02:53:00;;;;;;;7.93;6.90;;;2.60;99.90;;;0.53;100.00;101107.13;4958161;28;71081;-59
2021/04/16 02:56:11;;;;;;;7.87;7.07;;;2.60;99.90;;;0.51;100.00;101100.22;4957206;28;69593;-59
2021/04/16 02:59:23;;;;;;;8.50;7.37;;;2.70;99.90;;;0.51;100.00;101095.78;4954505;28;81001;-58
2021/04/16 03:02:50;;;;;;;10.60;7.00;;;2.70;99.90;;;0.51;100.00;101093.16;4951803;28;68534;-57
2021/04/16 03:06:01;;;;;;;7.47;6.77;;;2.70;99.90;;;0.55;100.00;101092.09;4959600;28;54857;-59
2021/04/16 03:09:13;;;;;;;7.33;6.47;;;2.70;99.90;;;0.51;100.00;101098.44;4955480;28;63821;-60
2021/04/16 03:15:57;;;;;;;10.53;8.30;;;2.70;99.90;;;0.60;100.00;101095.38;4958175;28;59738;-60
2021/04/16 03:19:25;;;;;;;11.40;7.20;;;2.70;99.90;;;0.52;100.00;101096.66;4952937;28;61265;-58
2021/04/16 03:22:36;;;;;;;9.13;7.03;;;2.70;99.90;;;0.55;100.00;101092.09;4951020;28;66107;-59
2021/04/16 03:25:47;;;;;;;8.90;6.27;;;2.70;99.90;;;0.57;100.00;101086.75;4959127;28;61012;-59
2021/04/16 03:29:00;;;;;;;7.20;6.50;;;2.70;99.90;;;0.57;100.00;101090.25;4944416;28;71648;-57
2021/04/16 03:32:12;;;;;;;9.83;6.00;;;2.70;99.90;;;0.57;100.00;101094.66;4953788;28;64361;-59
2021/04/16 03:35:24;;;;;;;6.97;6.27;;;2.70;99.90;;;0.48;100.00;101093.34;4955002;28;62340;-58
2021/04/16 03:38:35;;;;;;;6.93;6.10;;;2.70;99.90;;;0.47;100.00;101096.03;4955530;28;61120;-59
2021/04/16 03:41:47;;;;;;;9.57;6.30;;;2.70;99.90;;;0.56;100.00;101096.44;4956528;28;61233;-59
2021/04/16 03:44:58;;;;;;;6.13;5.53;;;2.70;99.90;;;0.51;100.00;101097.56;4955840;28;64353;-59
2021/04/16 03:48:10;;;;;;;8.67;6.30;;;2.70;99.90;;;0.50;100.00;101102.00;4953830;28;58258;-59
2021/04/16 03:51:23;;;;;;;6.50;5.50;;;2.70;99.90;;;0.54;100.00;101103.56;4939969;28;59668;-57
2021/04/16 03:57:50;;;;;;;7.87;5.80;;;2.70;99.90;;;0.47;100.00;101102.16;4959521;28;67880;-59
2021/04/16 04:01:03;;;;;;;9.67;5.87;;;2.70;99.90;;;0.51;100.00;101105.47;4957195;28;60543;-59
2021/04/16 04:04:14;;;;;;;9.83;5.83;;;2.60;99.90;;;0.50;100.00;101107.25;4956662;28;59410;-60
2021/04/16 04:07:38;;;;;;;9.57;6.20;;;2.60;99.90;;;0.45;100.00;101097.88;4959190;28;59459;-60
2021/04/16 04:10:50;;;;;;;35.93;8.40;;;2.60;99.90;;;0.51;100.00;101106.31;4957888;28;56279;-60
2021/04/16 04:14:01;;;;;;;7.73;5.83;;;2.60;99.90;;;0.46;100.00;101104.88;4958813;28;61146;-59
2021/04/16 04:17:31;;;;;;;9.80;6.33;;;2.60;99.90;;;0.47;100.00;101103.94;4961651;28;54076;-60
2021/04/16 04:20:45;;;;;;;7.37;5.20;;;2.60;99.90;;;0.46;100.00;101107.50;4960195;28;57164;-60
2021/04/16 04:23:58;;;;;;;8.30;5.87;;;2.60;99.90;;;0.42;100.00;101113.81;4964115;28;58164;-60
2021/04/16 04:27:18;;;;;;;9.60;6.50;;;2.60;99.90;;;0.45;100.00;101124.22;4963550;28;65457;-59
2021/04/16 04:30:54;;;;;;;8.20;5.67;;;2.60;99.90;;;0.40;100.00;101111.25;4961775;28;48341;-59
2021/04/16 04:34:05;;;;;;;7.17;5.23;;;2.60;99.90;;;0.33;100.00;101120.41;4958554;28;51540;-59
2021/04/16 04:37:19;;;;;;;6.33;4.87;;;2.60;99.90;;;0.31;100.00;101116.97;4961845;28;55570;-59
2021/04/16 04:40:34;;;;;;;6.07;5.40;;;2.50;99.90;;;0.28;100.00;101119.75;4958885;28;53927;-59
2021/04/16 04:43:45;;;;;;;23.53;6.87;;;2.50;99.90;;;0.30;100.00;101117.91;4958835;28;55238;-58
2021/04/16 04:46:56;;;;;;;7.07;5.83;;;2.50;99.90;;;0.30;100.00;101118.75;4956018;28;62471;-60
2021/04/16 04:50:07;;;;;;;8.20;5.17;;;2.50;99.90;;;0.21;100.00;101123.59;4958509;28;56088;-59
2021/04/16 04:53:20;;;;;;;6.63;5.63;;;2.40;99.90;;;0.25;100.00;101126.00;4957181;28;60779;-60
2021/04/16 04:56:33;;;;;;;7.53;5.40;;;2.40;99.90;;;0.21;100.00;101126.25;4957399;28;60550;-61
2021/04/16 04:59:44;;;;;;;6.73;5.27;;;2.40;99.90;;;0.18;100.00;101121.09;4960273;28;54972;-59
2021/04/16 05:02:55;;;;;;;6.43;5.33;;;2.40;99.90;;;0.14;100.00;101132.69;4967582;28;45071;-59
2021/04/16 05:06:06;;;;;;;11.83;5.40;;;2.40;99.90;;;0.21;100.00;101124.47;4967260;28;56061;-60
2021/04/16 05:09:18;;;;;;;8.37;5.10;;;2.30;99.90;;;0.11;100.00;101123.19;4967598;28;46143;-60
2021/04/16 05:12:31;;;;;;;7.97;5.50;;;2.40;99.90;;;0.16;100.00;101128.22;4967400;28;47853;-60
2021/04/16 05:15:42;;;;;;;12.00;6.07;;;2.30;99.90;;;0.20;100.00;101128.00;4965976;28;54751;-60
2021/04/16 05:18:54;;;;;;;8.13;4.70;;;2.30;99.90;;;0.09;100.00;101129.44;4947071;28;48903;-60
2021/04/16 05:22:05;;;;;;;9.20;6.17;;;2.30;99.90;;;0.15;100.00;101132.63;4946979;28;48284;-59
2021/04/16 05:25:17;;;;;;;8.90;5.43;;;2.30;99.90;;;0.07;100.00;101126.03;4962615;28;47034;-59
2021/04/16 05:28:29;;;;;;;7.23;5.30;;;2.30;99.90;;;0.06;100.00;101135.69;4966774;28;49211;-59
2021/04/16 05:31:40;;;;;;;6.13;5.13;;;2.30;99.90;;;0.02;100.00;101135.88;4967135;28;44982;-60
2021/04/16 05:38:32;;;;;;;7.50;5.10;;;2.20;99.90;;;0.14;100.00;101132.69;4959848;28;57357;-62
2021/04/16 05:41:54;;;;;;;6.90;5.27;;;2.20;99.90;;;0.18;100.00;101129.84;4962030;28;51690;-60
2021/04/16 05:45:07;;;;;;;8.90;5.20;;;2.20;99.90;;;0.23;100.00;101137.56;4945714;28;51700;-58
2021/04/16 05:48:29;;;;;;;7.37;5.07;;;2.30;99.90;;;0.30;100.00;101134.53;4945230;28;53833;-58
2021/04/16 05:52:01;;;;;;;9.47;5.03;;;2.30;99.90;;;0.24;100.00;101128.72;4947086;28;62738;-59
2021/04/16 05:55:13;;;;;;;5.83;4.77;;;2.30;99.90;;;0.32;100.00;101130.06;4959423;28;55913;-58
2021/04/16 05:58:24;;;;;;;6.93;4.77;;;2.40;99.90;;;0.28;100.00;101131.13;4963186;28;55373;-61
2021/04/16 06:01:36;;;;;;;5.20;4.70;;;2.40;99.90;;;0.39;100.00;101132.41;4963316;28;47566;-62
2021/04/16 06:04:49;;;;;;;36.93;7.77;;;2.40;99.90;;;0.46;100.00;101131.19;4964514;28;46722;-62
2021/04/16 06:08:01;;;;;;;7.43;5.60;;;2.50;99.90;;;0.34;100.00;101136.13;4965965;28;41963;-59
2021/04/16 06:11:13;;;;;;;7.23;5.27;;;2.50;99.90;;;0.54;100.00;101131.66;4960012;28;51918;-62
2021/04/16 06:14:24;;;;;;;8.50;5.87;;;2.60;99.90;;;0.49;100.00;101131.06;4952368;28;47113;-62
2021/04/16 06:17:37;;;;;;;11.00;5.90;;;2.60;99.90;;;0.57;100.00;101132.38;4964675;28;51245;-61
2021/04/16 06:20:49;;;;;;;6.77;5.73;;;2.70;99.90;;;0.55;100.00;101131.59;4969659;28;47604;-62
2021/04/16 06:24:13;;;;;;;8.07;5.30;;;2.70;99.90;;;0.61;100.00;101135.72;4943549;28;55062;-61
2021/04/16 06:27:24;;;;;;;8.03;6.30;;;2.70;99.90;;;0.73;100.00;101136.91;4954110;28;50258;-61
2021/04/16 06:30:37;;;;;;;7.77;5.63;;;2.80;99.90;;;0.79;100.00;101136.59;4961962;28;56665;-59
2021/04/16 06:34:12;;;;;;;9.40;5.43;;;2.80;99.90;;;0.72;100.00;101136.06;4961463;28;53238;-60
2021/04/16 06:37:24;;;;;;;9.47;6.20;;;2.80;99.90;;;0.80;100.00;101133.88;4962144;28;48575;-60
2021/04/16 06:40:47;;;;;;;7.23;5.00;;;2.90;99.90;;;0.75;100.00;101142.94;4960000;28;56870;-59
2021/04/16 06:44:15;;;;;;;7.33;5.73;;;2.90;99.90;;;0.95;100.00;101146.31;4960695;28;52922;-60
2021/04/16 06:54:30;;;;;;;6.10;4.70;;;3.10;99.90;;;1.07;100.00;101143.06;4927568;28;55962;-60
2021/04/16 06:58:10;;;;;;;7.80;5.27;;;3.10;99.90;;;1.15;100.00;101149.72;4956617;28;44775;-59
2021/04/16 07:01:37;;;;;;;6.57;4.83;;;3.20;99.90;;;1.10;100.00;101149.13;4935943;28;56935;-60
2021/04/16 07:05:00;;;;;;;10.17;4.80;;;3.30;99.90;;;1.18;100.00;101142.53;4943573;28;48240;-59
2021/04/16 07:08:16;;;;;;;7.20;5.07;;;3.30;99.90;;;1.37;100.00;101145.91;4964977;28;47839;-60
2021/04/16 07:11:32;;;;;;;8.70;4.23;;;3.40;99.90;;;1.13;100.00;101143.66;4963447;28;51880;-60
2021/04/16 07:14:45;;;;;;;7.50;5.13;;;3.40;99.90;;;1.11;100.00;101149.03;4947746;28;49187;-60
2021/04/16 07:17:59;;;;;;;7.23;5.07;;;3.40;99.90;;;1.32;100.00;101152.38;4962116;28;43499;-60
2021/04/16 07:21:11;;;;;;;6.77;4.90;;;3.40;99.90;;;1.48;100.00;101145.38;4967295;28;43012;-60
2021/04/16 07:24:25;;;;;;;7.73;5.00;;;3.50;99.90;;;1.29;100.00;101152.50;4968451;28;52300;-60
2021/04/16 07:31:42;;;;;;;9.07;5.87;;;3.60;99.90;;;1.64;100.00;101146.25;4966621;28;47968;-58
2021/04/16 07:35:05;;;;;;;6.73;5.60;;;3.60;99.90;;;1.85;100.00;101146.94;4968023;28;48501;-60
2021/04/16 07:38:35;;;;;;;6.53;5.70;;;3.70;99.90;;;1.88;100.00;101146.75;4961022;28;58874;-59
2021/04/16 07:49:40;;;;;;;9.73;6.80;;;4.00;99.90;;;2.10;100.00;101157.84;4945124;28;53093;-60
2021/04/16 07:53:01;;;;;;;11.10;6.87;;;4.10;99.90;;;2.11;100.00;101151.63;4949609;28;55048;-60
2021/04/16 07:56:27;;;;;;;8.13;6.53;;;4.20;99.90;;;2.13;100.00;101162.97;4966649;28;53398;-60
2021/04/16 07:59:40;;;;;;;8.13;6.60;;;4.20;99.90;;;2.40;100.00;101154.47;4967613;28;51142;-58
2021/04/16 08:02:46;;;;;;;10.13;6.73;;;4.30;99.90;;;2.25;100.00;101153.53;4967705;28;45540;-59
2021/04/16 08:06:01;;;;;;;10.93;7.00;;;4.40;99.90;;;2.38;100.00;101151.91;4970415;28;48581;-61
2021/04/16 08:09:13;;;;;;;10.40;6.47;;;4.50;99.90;;;2.23;100.00;101160.69;4979400;28;44555;-61
2021/04/16 08:12:42;;;;;;;12.07;6.63;;;4.60;99.90;;;2.50;100.00;101156.53;4966815;28;45905;-59
2021/04/16 08:15:57;;;;;;;9.30;6.10;;;4.60;99.90;;;2.41;100.00;101159.69;4957485;28;49104;-61
2021/04/16 08:19:30;;;;;;;9.53;7.37;;;4.70;99.90;;;2.52;100.00;101156.44;4968064;28;45272;-61
2021/04/16 08:26:10;;;;;;;10.97;6.80;;;4.80;99.90;;;2.98;100.00;101164.38;4970730;28;44234;-60
2021/04/16 08:29:26;;;;;;;9.47;6.90;;;4.90;99.90;;;3.09;100.00;101165.47;4969592;28;50385;-61
2021/04/16 08:32:49;;;;;;;11.40;6.50;;;5.00;99.90;;;2.79;100.00;101159.31;4964303;28;41664;-61
2021/04/16 08:36:15;;;;;;;10.23;6.27;;;5.20;99.90;;;2.83;100.00;101156.44;4954077;28;46411;-61
2021/04/16 08:39:32;;;;;;;11.63;6.77;;;5.20;99.90;;;3.10;100.00;101156.59;4972584;28;46433;-61
2021/04/16 08:43:09;;;;;;;9.43;6.20;;;5.30;99.90;;;3.23;100.00;101157.59;4976952;28;42618;-62
2021/04/16 08:46:36;;;;;;;10.70;6.47;;;5.40;99.90;;;3.25;100.00;101157.50;4959541;28;49872;-61
2021/04/16 08:49:53;;;;;;;8.87;5.90;;;5.50;99.90;;;3.15;100.00;101151.91;4963452;28;51972;-61
2021/04/16 08:53:10;;;;;;;8.63;6.43;;;5.60;99.90;;;3.19;100.00;101153.44;4962112;28;57966;-61
2021/04/16 08:56:43;;;;;;;7.10;5.93;;;5.60;99.90;;;3.19;100.00;101161.38;4955605;28;53926;-61
2021/04/16 09:00:09;;;;;;;8.20;5.83;;;5.70;99.90;;;3.31;100.00;101159.81;4961320;28;48041;-61
2021/04/16 09:03:24;;;;;;;10.97;6.30;;;5.70;99.90;;;3.33;100.00;101155.28;4963537;28;49510;-61
2021/04/16 09:07:06;;;;;;;10.73;6.30;;;5.70;99.90;;;3.20;100.00;101156.94;4961824;28;49861;-61
2021/04/16 09:10:27;;;;;;;12.07;5.73;;;5.80;99.90;;;3.16;100.00;101143.03;4968605;28;50175;-61
2021/04/16 09:14:13;;;;;;;9.10;5.93;;;5.80;99.90;;;3.51;100.00;101140.94;4949519;28;46895;-59
2021/04/16 09:17:39;;;;;;;9.37;5.73;;;5.80;99.90;;;3.47;100.00;101138.56;4965922;28;40748;-61
2021/04/16 09:21:07;;;;;;;9.33;6.23;;;5.90;99.90;;;3.53;100.00;101135.56;4970749;28;45389;-61
2021/04/16 09:24:55;;;;;;;11.17;6.57;;;6.00;99.90;;;3.61;100.00;101130.63;4970409;28;41622;-61
2021/04/16 09:28:45;;;;;;;7.77;6.00;;;6.10;99.90;;;4.08;100.00;101127.69;4972734;28;37355;-61
2021/04/16 09:32:27;;;;;;;8.13;5.37;;;6.20;99.90;;;3.94;100.00;101133.03;4985016;28;42253;-60
2021/04/16 09:36:06;;;;;;;10.27;5.40;;;6.40;99.90;;;3.90;100.00;101137.66;4963989;28;45402;-61
2021/04/16 09:43:21;;;;;;;7.10;5.20;;;6.70;99.90;;;4.02;100.00;101135.19;4877765;28;43167;-60
2021/04/16 09:47:04;;;;;;;8.27;5.33;;;6.80;99.90;;;4.06;100.00;101134.06;4953590;28;44489;-62
2021/04/16 09:50:27;;;;;;;9.30;5.47;;;6.80;99.90;;;4.29;100.00;101139.59;4969519;28;40922;-61
2021/04/16 09:53:54;;;;;;;11.13;6.57;;;6.90;99.90;;;4.26;100.00;101136.28;4970595;28;43967;-61
2021/04/16 10:05:10;;;;;;;9.47;5.97;;;7.00;99.90;;;4.69;100.00;101131.75;4950901;28;46549;-61
2021/04/16 10:08:34;;;;;;;12.40;5.83;;;7.10;99.90;;;4.83;100.00;101122.88;4967516;28;50411;-60
2021/04/16 10:11:45;;;;;;;7.50;4.67;;;7.30;99.90;;;5.17;100.00;101121.50;4969743;28;41067;-61
2021/04/16 10:18:24;;;;;;;6.73;4.60;;;7.60;99.90;;;5.41;100.00;101123.31;4965750;28;48352;-62
2021/04/16 10:21:43;;;;;;;8.67;4.20;;;7.90;99.90;;;5.24;100.00;101115.66;4970799;28;40018;-60
2021/04/16 12:41:58;;;;;;;6.90;2.37;;;10.80;97.90;;;7.33;100.00;101093.38;4959685;28;49996;-58
2021/04/16 12:45:17;;;;;;;4.97;1.90;;;10.80;97.00;;;7.47;100.00;101097.66;4961977;28;51688;-57
2021/04/16 12:48:29;;;;;;;5.30;2.53;;;10.80;96.80;;;7.33;100.00;101089.88;4972243;28;53370;-59
2021/04/16 12:51:40;;;;;;;5.23;2.30;;;10.80;95.90;;;7.67;100.00;101096.09;4961344;28;51569;-58
2021/04/16 12:54:52;;;;;;;5.57;2.20;;;10.80;95.60;;;7.63;100.00;101103.50;4959004;28;51394;-58
2021/04/16 12:58:07;;;;;;;4.10;2.20;;;10.80;95.40;;;7.77;100.00;101089.94;4960488;28;51676;-57
2021/04/16 13:01:22;;;;;;;5.93;2.33;;;10.90;95.30;;;7.97;100.00;101087.50;4963331;28;55019;-59
2021/04/16 13:04:34;;;;;;;4.27;2.50;;;11.10;95.00;;;8.42;100.00;101078.50;4960567;28;47674;-58
2021/04/16 13:07:51;;;;;;;4.80;2.27;;;11.50;94.10;;;8.77;100.00;101075.63;4960049;28;46835;-59
2021/04/16 13:11:03;;;;;;;4.97;1.83;;;11.90;93.40;;;9.15;100.00;101069.69;4953693;28;53568;-59
2021/04/16 13:14:26;;;;;;;5.20;1.60;;;12.60;91.20;;;9.54;100.00;101064.59;4959132;28;51300;-59
2021/04/16 13:17:41;;;;;;;3.97;1.90;;;13.30;88.10;;;8.75;100.00;101066.88;4960075;28;52190;-59
2021/04/16 13:20:56;;;;;;;3.53;1.87;;;13.80;82.70;;;8.75;100.00;101064.22;4953559;28;47239;-58
2021/04/16 13:24:07;;;;;;;2.57;1.80;;;14.10;78.00;;;8.66;100.00;101064.97;4964847;28;46675;-59
2021/04/16 13:27:19;;;;;;;3.67;1.90;;;14.00;73.80;;;9.15;100.00;101056.34;4960334;28;58537;-58
2021/04/16 13:30:44;;;;;;;2.77;1.67;;;14.00;73.00;;;9.62;100.00;101048.78;4957400;28;54740;-59
2021/04/16 13:37:40;;;;;;;2.93;1.70;;;14.50;71.40;;;8.89;100.00;101042.56;4962204;28;41095;-58
2021/04/16 13:41:03;;;;;;;6.20;1.60;;;14.40;68.40;;;8.66;100.00;101048.94;4962005;28;43728;-59
2021/04/16 13:44:16;;;;;;;3.43;1.70;;;14.20;65.80;;;9.46;100.00;101041.25;4969608;28;37599;-59
2021/04/16 13:47:34;;;;;;;4.10;2.40;;;14.10;66.60;;;9.44;100.00;101040.53;4967417;28;42054;-58
2021/04/16 13:50:47;;;;;;;4.83;1.97;;;14.20;65.90;;;9.45;100.00;101030.69;4964843;28;46943;-59
2021/04/16 13:53:59;;;;;;;4.07;2.20;;;14.40;64.70;;;9.84;100.00;101024.53;4964637;28;48235;-59
2021/04/16 13:57:27;;;;;;;3.50;1.67;;;14.60;63.90;;;9.71;100.00;101015.91;4963168;28;49209;-59
2021/04/16 14:00:59;;;;;;;4.70;2.43;;;14.90;62.30;;;9.83;100.00;101027.34;4969370;28;36865;-60
2021/04/16 14:04:15;;;;;;;4.32;2.03;;;15.00;62.90;;;9.82;100.00;101026.47;4965986;28;40113;-59
2021/04/16 14:14:26;;;;;;;3.00;1.55;;;15.00;59.70;;;9.73;100.00;101022.81;4975257;28;39721;-59
2021/04/16 14:18:17;;;;;;;3.53;1.65;;;15.00;59.20;;;9.79;100.00;101016.06;4973385;28;43008;-59
2021/04/16 14:21:31;;;;;;;5.07;1.60;;;14.90;58.70;;;9.87;100.00;101018.06;4914644;28;41861;-58
2021/04/16 14:24:44;;;;;;;2.63;1.60;;;14.90;59.60;;;9.49;100.00;101016.09;4920561;28;31201;-57
2021/04/16 14:27:55;;;;;;;3.87;1.77;;;14.70;58.90;;;9.51;100.00;101014.13;4983292;28;33628;-59
2021/04/16 14:31:19;;;;;;;3.67;1.80;;;14.50;59.10;;;9.27;100.00;101017.09;4980451;28;36805;-59
2021/04/16 14:34:44;;;;;;;5.97;2.20;;;14.40;59.60;;;9.34;100.00;101011.09;4982272;28;28289;-59
2021/04/16 14:37:55;;;;;;;3.67;1.70;;;14.10;59.80;;;9.18;100.00;101016.06;4974431;28;43232;-56
2021/04/16 14:41:20;;;;;;;3.60;1.73;;;13.90;60.40;;;9.06;100.00;101008.25;4981044;28;34288;-57
2021/04/16 14:44:33;;;;;;;4.43;1.60;;;13.80;61.10;;;8.96;100.00;101010.84;4980186;28;40700;-58
2021/04/16 14:47:44;;;;;;;3.50;1.93;;;13.50;61.60;;;8.88;100.00;101005.34;4980164;28;33852;-58
2021/04/16 14:51:00;;;;;;;5.17;1.93;;;13.40;62.00;;;9.29;100.00;101004.44;4981903;28;32488;-59
2021/04/16 14:54:28;;;;;;;3.47;1.60;;;13.30;63.00;;;9.03;100.00;101001.34;4967598;28;41997;-58
2021/04/16 14:57:46;;;;;;;5.17;2.13;;;13.20;62.10;;;9.14;100.00;101000.44;4971426;28;43806;-58
2021/04/16 15:00:59;;;;;;;3.60;1.60;;;13.10;62.40;;;9.28;100.00;100990.25;4974669;28;37661;-59
2021/04/16 15:07:29;;;;;;;3.90;2.03;;;13.10;63.90;;;9.23;100.00;100997.81;4965208;28;48208;-58
2021/04/16 15:10:46;;;;;;;3.40;2.20;;;13.00;63.40;;;9.05;100.00;100993.19;4963953;28;45018;-57
2021/04/16 15:14:01;;;;;;;4.83;1.77;;;12.80;63.70;;;8.97;100.00;100993.88;4991433;28;41676;-59
2021/04/16 15:17:14;;;;;;;2.83;1.93;;;12.70;63.50;;;8.89;100.00;100997.19;4981776;28;31637;-58
2021/04/16 15:20:26;;;;;;;3.37;2.00;;;12.60;63.20;;;8.59;100.00;100992.59;4977432;28;37410;-58
2021/04/16 15:23:39;;;;;;;3.77;1.90;;;12.50;63.20;;;8.95;100.00;100993.16;4970831;28;41626;-58
2021/04/16 15:26:51;;;;;;;3.57;1.80;;;12.40;62.60;;;8.89;100.00;100989.19;4967397;28;42730;-58
2021/04/16 15:47:42;;;;;;;3.40;2.53;;;12.40;64.00;;;8.81;100.00;100975.63;4971855;28;41325;-58
2021/04/16 15:50:59;;;;;;;3.47;2.30;;;12.30;62.50;;;8.76;100.00;100977.88;4968122;28;44208;-58
2021/04/16 15:54:11;;;;;;;4.57;1.97;;;12.20;61.80;;;8.73;100.00;100971.94;4972424;28;37576;-58
2021/04/16 15:57:23;;;;;;;3.50;1.80;;;12.00;61.60;;;8.78;100.00;100972.41;4984514;28;38677;-58
2021/04/16 16:00:39;;;;;;;3.23;1.50;;;11.90;62.30;;;8.53;100.00;100961.09;4971893;28;40634;-57
2021/04/16 16:03:52;;;;;;;3.70;1.80;;;11.90;62.00;;;8.53;100.00;100969.09;4967562;28;33262;-58
2021/04/16 16:07:04;;;;;;;4.37;1.90;;;11.70;61.00;;;8.50;100.00;100966.72;4972267;28;40701;-58
2021/04/16 16:10:16;;;;;;;3.20;1.60;;;11.60;60.90;;;8.55;100.00;100963.63;4973057;28;38973;-59
2021/04/16 16:13:34;;;;;;;4.20;1.83;;;11.50;62.50;;;8.53;100.00;100969.09;4970882;28;43922;-58
2021/04/16 16:16:46;;;;;;;3.70;2.00;;;11.50;62.80;;;8.69;100.00;100963.34;4971485;28;39250;-57
2021/04/16 16:19:48;;;;;;;2.87;1.80;;;11.50;64.10;;;8.60;100.00;100964.97;4976071;28;41593;-55
2021/04/16 16:23:01;;;;;;;3.53;1.80;;;11.50;63.90;;;8.62;100.00;100968.34;4978343;28;29378;-58
2021/04/16 16:26:24;;;;;;;4.17;1.60;;;11.50;63.80;;;8.53;100.00;100965.63;4976150;28;35171;-58
2021/04/16 16:29:41;;;;;;;6.93;1.70;;;11.40;63.60;;;8.55;100.00;100960.97;4970848;28;37690;-57
2021/04/16 16:32:57;;;;;;;5.07;2.10;;;11.40;64.10;;;8.43;100.00;100962.00;4979581;28;37522;-59
2021/04/16 16:36:11;;;;;;;7.20;2.33;;;11.40;64.30;;;8.51;100.00;100957.75;4975045;28;39272;-58
2021/04/16 16:39:23;;;;;;;5.90;1.80;;;11.30;64.40;;;8.47;100.00;100955.44;4968424;28;43743;-56
2021/04/16 16:42:39;;;;;;;4.77;2.13;;;11.30;64.70;;;8.40;100.00;100964.94;4976364;28;30598;-57
2021/04/16 16:45:52;;;;;;;3.17;2.10;;;11.30;65.00;;;8.36;100.00;100953.69;4974926;28;34829;-59
2021/04/16 16:49:15;;;;;;;4.43;1.70;;;11.20;65.20;;;8.43;100.00;100962.84;4968462;28;36695;-59
2021/04/16 16:55:53;;;;;;;3.50;1.60;;;11.10;66.20;;;8.24;100.00;100960.00;4990543;28;35095;-59
2021/04/16 16:59:16;;;;;;;3.83;1.60;;;11.10;66.30;;;8.23;100.00;100966.31;4972757;28;37969;-57
2021/04/16 17:02:28;;;;;;;4.43;1.90;;;10.90;66.00;;;8.14;100.00;100970.56;4975141;28;31467;-57
2021/04/16 17:05:39;;;;;;;4.27;1.67;;;10.90;66.10;;;8.15;100.00;100966.09;4975878;28;33129;-57
2021/04/16 17:12:32;;;;;;;3.83;1.53;;;10.70;67.10;;;8.06;100.00;100970.34;4965919;28;45540;-56
2021/04/16 17:15:53;;;;;;;3.70;1.63;;;10.60;68.00;;;8.13;100.00;100973.38;4971775;28;36844;-57
2021/04/16 17:19:05;;;;;;;5.47;1.70;;;10.60;70.00;;;7.99;100.00;100982.47;4967867;28;33835;-57
2021/04/16 17:22:28;;;;;;;2.23;1.77;;;10.50;69.60;;;7.99;100.00;100976.31;4969554;28;34839;-57
2021/04/16 17:25:40;;;;;;;1.90;1.37;;;10.50;70.10;;;7.90;100.00;100978.75;4969641;28;40060;-57